SBOSBO MAN / EGCC
Speedbird OnlineSpeedbird Online MAN / EGCC

Manchester Airport
22:00 16°C

Location Manchester, United Kingdom
Latitude: 53.35369873046875
Longitude: -2.2749500274658203
Local Time 22:00 on 19 Jun 2024
UTC +1 hours (Europe/London)
METAR EGCC 191950Z AUTO VRB02KT 9999 NCD 18/09 Q1022
TAF TAF EGCC 191701Z 1918/2024 26009KT 9999 FEW045
Weather As Of 19 Jun 2024 21:17
Description Overcast clouds
Wind 2 km/h from South-West (216°)
Cloud Cover 91%
Precipitation Rain: none, Snow: none
Sunrise 04:40
Sunset 21:40
NOTAM 9 active NOTAM
Rotations During the last 90 days there were
502 flights from LHR
29 flights from BLL
2 flights from
2 flights from MAN
501 flights to LHR
28 flights to BLL
4 flights to INV
2 flights to MAN
1 flights to BLQ
1 flights to DUS
1 flights to
Lounges The Escape Lounge- Terminal 1, Terminal 1
Aspire Lounge , Terminal 1
1903 Lounge , Terminal 2
Escape Lounge , Terminal 2
Escape Lounge (Terminal 3), Terminal 3
Web Airport Website | Wikipedia
Codes IATA: MAN
ICAO: EGCC
Altitude 78 Meter / 257 Feet
Distance 262 KM / 163 Miles
from London.
Runways
RunwayLength (m)Surface
05L3048Asphalt
05R3050Concrete
23L3050Concrete
23R3048Asphalt
Radio
TypeDescriptionFrequency
APPAPP135
ATISATIS128.175
CLDCLNC DEL121.7
GNDGND121.85
TWRTWR118.625
TWR119.4
Live ATC



Support Speedbird Online

© 2017-2024 Speedbird Online